sensor_id;sensor_type;location;lat;lon;timestamp;P1;durP1;ratioP1;P2;durP2;ratioP2
27199;SDS011;14714;48.106;11.546;2023-05-10T00:01:27;2.13;;;1.42;;
27199;SDS011;14714;48.106;11.546;2023-05-10T00:03:54;3.17;;;1.30;;
27199;SDS011;14714;48.106;11.546;2023-05-10T00:06:21;2.10;;;1.55;;
27199;SDS011;14714;48.106;11.546;2023-05-10T00:08:48;2.50;;;1.42;;
27199;SDS011;14714;48.106;11.546;2023-05-10T00:11:14;3.75;;;1.50;;
27199;SDS011;14714;48.106;11.546;2023-05-10T00:13:41;2.20;;;1.08;;
27199;SDS011;14714;48.106;11.546;2023-05-10T00:16:08;2.15;;;1.30;;
27199;SDS011;14714;48.106;11.546;2023-05-10T00:18:35;1.95;;;1.27;;
27199;SDS011;14714;48.106;11.546;2023-05-10T00:21:02;3.33;;;1.33;;
27199;SDS011;14714;48.106;11.546;2023-05-10T00:23:29;1.52;;;1.42;;
27199;SDS011;14714;48.106;11.546;2023-05-10T00:25:56;1.60;;;1.50;;
27199;SDS011;14714;48.106;11.546;2023-05-10T00:28:22;2.55;;;1.65;;
27199;SDS011;14714;48.106;11.546;2023-05-10T00:30:49;1.40;;;1.30;;
27199;SDS011;14714;48.106;11.546;2023-05-10T00:33:16;1.90;;;1.35;;
27199;SDS011;14714;48.106;11.546;2023-05-10T00:35:44;3.08;;;1.25;;
27199;SDS011;14714;48.106;11.546;2023-05-10T00:38:11;1.20;;;1.10;;
27199;SDS011;14714;48.106;11.546;2023-05-10T00:40:37;3.35;;;1.17;;
27199;SDS011;14714;48.106;11.546;2023-05-10T00:43:04;1.85;;;0.93;;
27199;SDS011;14714;48.106;11.546;2023-05-10T00:45:32;1.30;;;1.17;;
27199;SDS011;14714;48.106;11.546;2023-05-10T00:48:00;2.70;;;0.95;;
27199;SDS011;14714;48.106;11.546;2023-05-10T00:50:30;2.20;;;1.35;;
27199;SDS011;14714;48.106;11.546;2023-05-10T00:52:58;2.40;;;1.20;;
27199;SDS011;14714;48.106;11.546;2023-05-10T00:55:26;1.15;;;0.90;;
27199;SDS011;14714;48.106;11.546;2023-05-10T00:57:53;1.02;;;1.00;;
27199;SDS011;14714;48.106;11.546;2023-05-10T01:00:20;2.33;;;1.30;;
27199;SDS011;14714;48.106;11.546;2023-05-10T01:02:47;1.33;;;1.20;;
27199;SDS011;14714;48.106;11.546;2023-05-10T01:05:15;1.00;;;0.98;;
27199;SDS011;14714;48.106;11.546;2023-05-10T01:07:42;1.10;;;0.90;;
27199;SDS011;14714;48.106;11.546;2023-05-10T01:10:09;1.52;;;1.08;;
27199;SDS011;14714;48.106;11.546;2023-05-10T01:12:37;2.03;;;1.20;;
27199;SDS011;14714;48.106;11.546;2023-05-10T01:15:07;3.05;;;1.30;;
27199;SDS011;14714;48.106;11.546;2023-05-10T01:17:35;0.93;;;0.80;;
27199;SDS011;14714;48.106;11.546;2023-05-10T01:20:05;1.20;;;1.10;;
27199;SDS011;14714;48.106;11.546;2023-05-10T01:36:43;2.10;;;0.98;;
27199;SDS011;14714;48.106;11.546;2023-05-10T01:39:01;1.10;;;0.95;;
27199;SDS011;14714;48.106;11.546;2023-05-10T01:44:18;0.90;;;0.90;;
27199;SDS011;14714;48.106;11.546;2023-05-10T01:47:17;1.10;;;1.00;;
27199;SDS011;14714;48.106;11.546;2023-05-10T01:49:52;2.08;;;0.95;;
27199;SDS011;14714;48.106;11.546;2023-05-10T01:52:30;0.80;;;0.70;;
27199;SDS011;14714;48.106;11.546;2023-05-10T01:55:00;1.17;;;0.90;;
27199;SDS011;14714;48.106;11.546;2023-05-10T01:57:35;0.90;;;0.90;;
27199;SDS011;14714;48.106;11.546;2023-05-10T02:00:03;1.08;;;0.90;;
27199;SDS011;14714;48.106;11.546;2023-05-10T02:02:33;3.55;;;0.80;;
27199;SDS011;14714;48.106;11.546;2023-05-10T02:05:05;0.90;;;0.80;;
27199;SDS011;14714;48.106;11.546;2023-05-10T02:07:36;1.02;;;0.90;;
27199;SDS011;14714;48.106;11.546;2023-05-10T02:12:31;1.33;;;0.80;;
27199;SDS011;14714;48.106;11.546;2023-05-10T02:15:01;1.40;;;0.93;;
27199;SDS011;14714;48.106;11.546;2023-05-10T02:17:31;1.63;;;1.08;;
27199;SDS011;14714;48.106;11.546;2023-05-10T02:19:59;1.00;;;0.90;;
27199;SDS011;14714;48.106;11.546;2023-05-10T02:22:27;0.80;;;0.80;;
27199;SDS011;14714;48.106;11.546;2023-05-10T02:24:55;1.30;;;0.98;;
27199;SDS011;14714;48.106;11.546;2023-05-10T02:27:24;0.88;;;0.85;;
27199;SDS011;14714;48.106;11.546;2023-05-10T02:29:53;0.95;;;0.93;;
27199;SDS011;14714;48.106;11.546;2023-05-10T02:32:21;0.98;;;0.80;;
27199;SDS011;14714;48.106;11.546;2023-05-10T02:34:50;1.50;;;0.80;;
27199;SDS011;14714;48.106;11.546;2023-05-10T02:37:19;1.45;;;0.90;;
27199;SDS011;14714;48.106;11.546;2023-05-10T02:39:47;1.83;;;1.10;;
27199;SDS011;14714;48.106;11.546;2023-05-10T02:42:18;0.93;;;0.80;;
27199;SDS011;14714;48.106;11.546;2023-05-10T02:44:47;1.10;;;1.00;;
27199;SDS011;14714;48.106;11.546;2023-05-10T02:47:15;0.80;;;0.80;;
27199;SDS011;14714;48.106;11.546;2023-05-10T02:49:42;1.05;;;1.00;;
27199;SDS011;14714;48.106;11.546;2023-05-10T02:52:09;1.00;;;0.90;;
27199;SDS011;14714;48.106;11.546;2023-05-10T02:54:39;1.05;;;0.70;;
27199;SDS011;14714;48.106;11.546;2023-05-10T02:57:15;2.60;;;1.00;;
27199;SDS011;14714;48.106;11.546;2023-05-10T02:59:44;0.80;;;0.80;;
27199;SDS011;14714;48.106;11.546;2023-05-10T03:02:12;1.30;;;0.90;;
27199;SDS011;14714;48.106;11.546;2023-05-10T03:04:39;0.70;;;0.70;;
27199;SDS011;14714;48.106;11.546;2023-05-10T03:07:06;0.80;;;0.80;;
27199;SDS011;14714;48.106;11.546;2023-05-10T03:09:33;0.80;;;0.80;;
27199;SDS011;14714;48.106;11.546;2023-05-10T03:12:08;0.80;;;0.80;;
27199;SDS011;14714;48.106;11.546;2023-05-10T03:17:58;1.17;;;0.80;;
27199;SDS011;14714;48.106;11.546;2023-05-10T03:20:36;1.00;;;0.90;;
27199;SDS011;14714;48.106;11.546;2023-05-10T03:25:44;3.40;;;1.48;;
27199;SDS011;14714;48.106;11.546;2023-05-10T03:28:14;4.00;;;1.52;;
27199;SDS011;14714;48.106;11.546;2023-05-10T03:30:42;3.55;;;1.15;;
27199;SDS011;14714;48.106;11.546;2023-05-10T03:33:11;1.60;;;1.00;;
27199;SDS011;14714;48.106;11.546;2023-05-10T03:35:39;0.73;;;0.73;;
27199;SDS011;14714;48.106;11.546;2023-05-10T03:38:06;0.93;;;0.80;;
27199;SDS011;14714;48.106;11.546;2023-05-10T03:40:32;0.70;;;0.70;;
27199;SDS011;14714;48.106;11.546;2023-05-10T03:42:59;1.10;;;0.70;;
27199;SDS011;14714;48.106;11.546;2023-05-10T03:45:26;0.47;;;0.47;;
27199;SDS011;14714;48.106;11.546;2023-05-10T03:47:53;1.25;;;0.60;;
27199;SDS011;14714;48.106;11.546;2023-05-10T03:50:20;2.47;;;0.75;;
27199;SDS011;14714;48.106;11.546;2023-05-10T03:52:47;1.13;;;0.70;;
27199;SDS011;14714;48.106;11.546;2023-05-10T03:55:14;2.00;;;0.90;;
27199;SDS011;14714;48.106;11.546;2023-05-10T03:57:41;0.98;;;0.70;;
27199;SDS011;14714;48.106;11.546;2023-05-10T04:00:08;0.60;;;0.50;;
27199;SDS011;14714;48.106;11.546;2023-05-10T04:02:35;1.35;;;0.68;;
27199;SDS011;14714;48.106;11.546;2023-05-10T04:05:03;0.82;;;0.70;;
27199;SDS011;14714;48.106;11.546;2023-05-10T04:07:30;1.65;;;0.80;;
27199;SDS011;14714;48.106;11.546;2023-05-10T04:09:57;1.20;;;0.82;;
27199;SDS011;14714;48.106;11.546;2023-05-10T04:12:24;1.15;;;0.52;;
27199;SDS011;14714;48.106;11.546;2023-05-10T04:14:51;0.80;;;0.70;;
27199;SDS011;14714;48.106;11.546;2023-05-10T04:17:17;0.70;;;0.70;;
27199;SDS011;14714;48.106;11.546;2023-05-10T04:19:44;1.88;;;0.70;;
27199;SDS011;14714;48.106;11.546;2023-05-10T04:22:11;0.93;;;0.70;;
27199;SDS011;14714;48.106;11.546;2023-05-10T04:24:38;1.98;;;0.70;;
27199;SDS011;14714;48.106;11.546;2023-05-10T04:27:04;1.70;;;0.60;;
27199;SDS011;14714;48.106;11.546;2023-05-10T04:29:31;0.70;;;0.70;;
27199;SDS011;14714;48.106;11.546;2023-05-10T04:31:58;0.82;;;0.70;;
27199;SDS011;14714;48.106;11.546;2023-05-10T04:34:25;1.65;;;0.50;;
27199;SDS011;14714;48.106;11.546;2023-05-10T04:36:51;2.63;;;0.70;;
27199;SDS011;14714;48.106;11.546;2023-05-10T04:39:18;1.42;;;0.47;;
27199;SDS011;14714;48.106;11.546;2023-05-10T04:41:45;1.92;;;0.70;;
27199;SDS011;14714;48.106;11.546;2023-05-10T04:44:12;0.40;;;0.40;;
27199;SDS011;14714;48.106;11.546;2023-05-10T04:46:38;0.70;;;0.50;;
27199;SDS011;14714;48.106;11.546;2023-05-10T04:49:05;1.67;;;0.75;;
27199;SDS011;14714;48.106;11.546;2023-05-10T04:51:32;0.60;;;0.60;;
27199;SDS011;14714;48.106;11.546;2023-05-10T04:53:59;2.92;;;0.55;;
27199;SDS011;14714;48.106;11.546;2023-05-10T04:56:31;2.63;;;0.80;;
27199;SDS011;14714;48.106;11.546;2023-05-10T04:58:59;0.68;;;0.40;;
27199;SDS011;14714;48.106;11.546;2023-05-10T05:01:25;2.05;;;0.50;;
27199;SDS011;14714;48.106;11.546;2023-05-10T05:03:52;1.33;;;0.60;;
27199;SDS011;14714;48.106;11.546;2023-05-10T05:06:19;4.85;;;0.40;;
27199;SDS011;14714;48.106;11.546;2023-05-10T05:08:47;2.60;;;0.57;;
27199;SDS011;14714;48.106;11.546;2023-05-10T05:11:15;1.60;;;0.57;;
27199;SDS011;14714;48.106;11.546;2023-05-10T05:13:43;0.70;;;0.70;;
27199;SDS011;14714;48.106;11.546;2023-05-10T05:16:10;0.77;;;0.50;;
27199;SDS011;14714;48.106;11.546;2023-05-10T05:18:37;1.60;;;0.60;;
27199;SDS011;14714;48.106;11.546;2023-05-10T05:21:17;0.65;;;0.50;;
27199;SDS011;14714;48.106;11.546;2023-05-10T05:23:45;1.40;;;0.47;;
27199;SDS011;14714;48.106;11.546;2023-05-10T05:26:12;1.58;;;0.55;;
27199;SDS011;14714;48.106;11.546;2023-05-10T05:28:39;0.75;;;0.45;;
27199;SDS011;14714;48.106;11.546;2023-05-10T05:31:06;2.50;;;0.50;;
27199;SDS011;14714;48.106;11.546;2023-05-10T05:33:36;0.98;;;0.52;;
27199;SDS011;14714;48.106;11.546;2023-05-10T05:36:03;0.75;;;0.68;;
27199;SDS011;14714;48.106;11.546;2023-05-10T05:38:31;1.77;;;0.70;;
27199;SDS011;14714;48.106;11.546;2023-05-10T05:40:58;1.13;;;0.70;;
27199;SDS011;14714;48.106;11.546;2023-05-10T05:43:25;2.78;;;0.70;;
27199;SDS011;14714;48.106;11.546;2023-05-10T05:45:52;2.38;;;0.60;;
27199;SDS011;14714;48.106;11.546;2023-05-10T05:48:24;0.88;;;0.70;;
27199;SDS011;14714;48.106;11.546;2023-05-10T05:50:53;1.52;;;0.57;;
27199;SDS011;14714;48.106;11.546;2023-05-10T05:53:22;3.45;;;0.80;;
27199;SDS011;14714;48.106;11.546;2023-05-10T05:55:56;0.73;;;0.70;;
27199;SDS011;14714;48.106;11.546;2023-05-10T05:58:24;3.05;;;0.68;;
27199;SDS011;14714;48.106;11.546;2023-05-10T06:00:51;0.65;;;0.60;;
27199;SDS011;14714;48.106;11.546;2023-05-10T06:03:18;2.25;;;0.63;;
27199;SDS011;14714;48.106;11.546;2023-05-10T06:05:46;2.15;;;0.63;;
27199;SDS011;14714;48.106;11.546;2023-05-10T06:08:13;1.55;;;0.98;;
27199;SDS011;14714;48.106;11.546;2023-05-10T06:10:39;1.52;;;1.08;;
27199;SDS011;14714;48.106;11.546;2023-05-10T06:13:06;1.00;;;0.80;;
27199;SDS011;14714;48.106;11.546;2023-05-10T06:15:33;0.80;;;0.77;;
27199;SDS011;14714;48.106;11.546;2023-05-10T06:18:00;0.95;;;0.70;;
27199;SDS011;14714;48.106;11.546;2023-05-10T06:20:27;1.25;;;0.80;;
27199;SDS011;14714;48.106;11.546;2023-05-10T06:22:54;2.35;;;0.80;;
27199;SDS011;14714;48.106;11.546;2023-05-10T06:25:21;1.38;;;0.90;;
27199;SDS011;14714;48.106;11.546;2023-05-10T06:27:47;3.22;;;0.70;;
27199;SDS011;14714;48.106;11.546;2023-05-10T06:30:19;2.97;;;0.93;;
27199;SDS011;14714;48.106;11.546;2023-05-10T06:32:46;1.52;;;0.95;;
27199;SDS011;14714;48.106;11.546;2023-05-10T06:35:13;1.98;;;0.77;;
27199;SDS011;14714;48.106;11.546;2023-05-10T06:37:40;3.42;;;1.10;;
27199;SDS011;14714;48.106;11.546;2023-05-10T06:40:07;1.20;;;0.80;;
27199;SDS011;14714;48.106;11.546;2023-05-10T06:42:34;1.27;;;1.00;;
27199;SDS011;14714;48.106;11.546;2023-05-10T06:45:01;2.58;;;1.02;;
27199;SDS011;14714;48.106;11.546;2023-05-10T06:47:28;0.95;;;0.90;;
27199;SDS011;14714;48.106;11.546;2023-05-10T06:49:55;0.88;;;0.80;;
27199;SDS011;14714;48.106;11.546;2023-05-10T06:52:22;2.92;;;0.90;;
27199;SDS011;14714;48.106;11.546;2023-05-10T06:54:49;1.08;;;0.98;;
27199;SDS011;14714;48.106;11.546;2023-05-10T06:57:16;2.95;;;1.10;;
27199;SDS011;14714;48.106;11.546;2023-05-10T06:59:56;0.80;;;0.80;;
27199;SDS011;14714;48.106;11.546;2023-05-10T07:02:24;2.55;;;0.70;;
27199;SDS011;14714;48.106;11.546;2023-05-10T07:04:50;2.40;;;1.05;;
27199;SDS011;14714;48.106;11.546;2023-05-10T07:07:18;1.15;;;0.80;;
27199;SDS011;14714;48.106;11.546;2023-05-10T07:09:45;3.88;;;1.20;;
27199;SDS011;14714;48.106;11.546;2023-05-10T07:12:12;2.03;;;0.80;;
27199;SDS011;14714;48.106;11.546;2023-05-10T07:14:40;2.63;;;1.00;;
27199;SDS011;14714;48.106;11.546;2023-05-10T07:17:08;2.90;;;0.80;;
27199;SDS011;14714;48.106;11.546;2023-05-10T07:19:35;3.20;;;1.00;;
27199;SDS011;14714;48.106;11.546;2023-05-10T07:22:02;2.58;;;1.00;;
27199;SDS011;14714;48.106;11.546;2023-05-10T07:24:29;4.13;;;1.02;;
27199;SDS011;14714;48.106;11.546;2023-05-10T07:26:57;1.40;;;1.05;;
27199;SDS011;14714;48.106;11.546;2023-05-10T07:29:24;1.75;;;0.80;;
27199;SDS011;14714;48.106;11.546;2023-05-10T07:31:50;3.70;;;1.13;;
27199;SDS011;14714;48.106;11.546;2023-05-10T07:34:17;1.63;;;0.80;;
27199;SDS011;14714;48.106;11.546;2023-05-10T07:36:44;2.40;;;0.90;;
27199;SDS011;14714;48.106;11.546;2023-05-10T07:39:11;0.75;;;0.75;;
27199;SDS011;14714;48.106;11.546;2023-05-10T07:41:49;1.40;;;0.80;;
27199;SDS011;14714;48.106;11.546;2023-05-10T07:44:16;1.25;;;0.90;;
27199;SDS011;14714;48.106;11.546;2023-05-10T07:46:45;5.32;;;1.15;;
27199;SDS011;14714;48.106;11.546;2023-05-10T07:49:13;1.13;;;0.88;;
27199;SDS011;14714;48.106;11.546;2023-05-10T07:51:40;0.95;;;0.82;;
27199;SDS011;14714;48.106;11.546;2023-05-10T07:54:07;1.20;;;0.80;;
27199;SDS011;14714;48.106;11.546;2023-05-10T07:56:33;2.45;;;0.75;;
27199;SDS011;14714;48.106;11.546;2023-05-10T07:59:01;2.38;;;0.82;;
27199;SDS011;14714;48.106;11.546;2023-05-10T08:01:34;1.20;;;0.85;;
27199;SDS011;14714;48.106;11.546;2023-05-10T08:04:01;1.15;;;0.70;;
27199;SDS011;14714;48.106;11.546;2023-05-10T08:06:29;0.93;;;0.85;;
27199;SDS011;14714;48.106;11.546;2023-05-10T08:08:56;1.23;;;1.10;;
27199;SDS011;14714;48.106;11.546;2023-05-10T08:11:23;2.17;;;1.02;;
27199;SDS011;14714;48.106;11.546;2023-05-10T08:13:50;2.78;;;1.00;;
27199;SDS011;14714;48.106;11.546;2023-05-10T08:16:17;0.70;;;0.70;;
27199;SDS011;14714;48.106;11.546;2023-05-10T08:18:45;1.02;;;0.80;;
27199;SDS011;14714;48.106;11.546;2023-05-10T08:21:13;1.55;;;0.90;;
27199;SDS011;14714;48.106;11.546;2023-05-10T08:23:40;1.08;;;0.88;;
27199;SDS011;14714;48.106;11.546;2023-05-10T08:26:07;0.95;;;0.90;;
27199;SDS011;14714;48.106;11.546;2023-05-10T08:28:34;1.10;;;0.70;;
27199;SDS011;14714;48.106;11.546;2023-05-10T08:31:01;1.73;;;0.95;;
27199;SDS011;14714;48.106;11.546;2023-05-10T08:33:28;2.03;;;0.80;;
27199;SDS011;14714;48.106;11.546;2023-05-10T08:35:54;2.42;;;0.70;;
27199;SDS011;14714;48.106;11.546;2023-05-10T08:38:21;0.82;;;0.70;;
27199;SDS011;14714;48.106;11.546;2023-05-10T08:40:49;0.95;;;0.80;;
27199;SDS011;14714;48.106;11.546;2023-05-10T08:43:21;3.30;;;0.90;;
27199;SDS011;14714;48.106;11.546;2023-05-10T08:45:49;5.72;;;1.10;;
27199;SDS011;14714;48.106;11.546;2023-05-10T08:48:17;1.05;;;0.90;;
27199;SDS011;14714;48.106;11.546;2023-05-10T08:50:45;4.88;;;0.95;;
27199;SDS011;14714;48.106;11.546;2023-05-10T08:53:13;1.88;;;0.90;;
27199;SDS011;14714;48.106;11.546;2023-05-10T08:55:42;2.75;;;0.80;;
27199;SDS011;14714;48.106;11.546;2023-05-10T08:58:09;1.33;;;0.98;;
27199;SDS011;14714;48.106;11.546;2023-05-10T09:00:36;1.02;;;0.82;;
27199;SDS011;14714;48.106;11.546;2023-05-10T09:03:04;1.67;;;0.80;;
27199;SDS011;14714;48.106;11.546;2023-05-10T09:05:32;2.47;;;1.02;;
27199;SDS011;14714;48.106;11.546;2023-05-10T09:07:59;1.33;;;0.85;;
27199;SDS011;14714;48.106;11.546;2023-05-10T09:10:28;3.40;;;1.20;;
27199;SDS011;14714;48.106;11.546;2023-05-10T09:12:57;1.20;;;1.10;;
27199;SDS011;14714;48.106;11.546;2023-05-10T09:15:24;1.92;;;0.80;;
27199;SDS011;14714;48.106;11.546;2023-05-10T09:17:52;1.20;;;0.95;;
27199;SDS011;14714;48.106;11.546;2023-05-10T09:20:19;1.38;;;1.00;;
27199;SDS011;14714;48.106;11.546;2023-05-10T09:22:46;0.95;;;0.80;;
27199;SDS011;14714;48.106;11.546;2023-05-10T09:25:14;2.60;;;1.08;;
27199;SDS011;14714;48.106;11.546;2023-05-10T09:27:46;3.80;;;0.98;;
27199;SDS011;14714;48.106;11.546;2023-05-10T09:30:23;1.30;;;0.70;;
27199;SDS011;14714;48.106;11.546;2023-05-10T09:32:54;1.00;;;0.80;;
27199;SDS011;14714;48.106;11.546;2023-05-10T09:35:22;3.17;;;0.90;;
27199;SDS011;14714;48.106;11.546;2023-05-10T09:37:55;1.20;;;0.95;;
27199;SDS011;14714;48.106;11.546;2023-05-10T09:40:24;1.00;;;0.80;;
27199;SDS011;14714;48.106;11.546;2023-05-10T09:42:56;1.90;;;1.00;;
27199;SDS011;14714;48.106;11.546;2023-05-10T09:45:25;3.55;;;0.90;;
27199;SDS011;14714;48.106;11.546;2023-05-10T09:47:54;1.42;;;0.80;;
27199;SDS011;14714;48.106;11.546;2023-05-10T09:50:22;5.05;;;1.60;;
27199;SDS011;14714;48.106;11.546;2023-05-10T09:52:53;2.97;;;1.00;;
27199;SDS011;14714;48.106;11.546;2023-05-10T09:55:37;1.05;;;0.82;;
27199;SDS011;14714;48.106;11.546;2023-05-10T09:58:06;2.88;;;0.93;;
27199;SDS011;14714;48.106;11.546;2023-05-10T10:00:37;1.83;;;0.70;;
27199;SDS011;14714;48.106;11.546;2023-05-10T10:03:06;2.20;;;0.80;;
27199;SDS011;14714;48.106;11.546;2023-05-10T10:05:39;1.83;;;0.88;;
27199;SDS011;14714;48.106;11.546;2023-05-10T10:08:07;6.75;;;0.88;;
27199;SDS011;14714;48.106;11.546;2023-05-10T10:10:34;5.07;;;1.00;;
27199;SDS011;14714;48.106;11.546;2023-05-10T10:13:01;0.93;;;0.80;;
27199;SDS011;14714;48.106;11.546;2023-05-10T10:15:28;2.65;;;0.75;;
27199;SDS011;14714;48.106;11.546;2023-05-10T10:17:55;1.20;;;0.85;;
27199;SDS011;14714;48.106;11.546;2023-05-10T10:20:22;1.65;;;0.77;;
27199;SDS011;14714;48.106;11.546;2023-05-10T10:22:50;2.00;;;0.80;;
27199;SDS011;14714;48.106;11.546;2023-05-10T10:25:17;0.70;;;0.70;;
27199;SDS011;14714;48.106;11.546;2023-05-10T10:27:58;3.38;;;0.88;;
27199;SDS011;14714;48.106;11.546;2023-05-10T10:35:54;2.50;;;0.82;;
27199;SDS011;14714;48.106;11.546;2023-05-10T10:38:24;1.60;;;0.90;;
27199;SDS011;14714;48.106;11.546;2023-05-10T10:41:03;2.38;;;1.88;;
27199;SDS011;14714;48.106;11.546;2023-05-10T10:43:36;3.38;;;1.30;;
27199;SDS011;14714;48.106;11.546;2023-05-10T10:46:15;1.05;;;0.95;;
27199;SDS011;14714;48.106;11.546;2023-05-10T10:48:48;1.52;;;0.85;;
27199;SDS011;14714;48.106;11.546;2023-05-10T10:51:37;1.83;;;0.82;;
27199;SDS011;14714;48.106;11.546;2023-05-10T10:54:11;1.80;;;0.70;;
27199;SDS011;14714;48.106;11.546;2023-05-10T10:56:38;0.63;;;0.63;;
27199;SDS011;14714;48.106;11.546;2023-05-10T10:59:05;0.77;;;0.75;;
27199;SDS011;14714;48.106;11.546;2023-05-10T11:01:34;3.75;;;1.08;;
27199;SDS011;14714;48.106;11.546;2023-05-10T11:06:32;2.35;;;1.13;;
27199;SDS011;14714;48.106;11.546;2023-05-10T11:09:09;6.95;;;1.70;;
27199;SDS011;14714;48.106;11.546;2023-05-10T11:11:58;3.88;;;1.27;;
27199;SDS011;14714;48.106;11.546;2023-05-10T11:14:26;5.28;;;1.35;;
27199;SDS011;14714;48.106;11.546;2023-05-10T11:16:53;2.45;;;1.30;;
27199;SDS011;14714;48.106;11.546;2023-05-10T11:19:19;2.15;;;1.38;;
27199;SDS011;14714;48.106;11.546;2023-05-10T11:21:50;2.88;;;1.40;;
27199;SDS011;14714;48.106;11.546;2023-05-10T11:24:20;7.97;;;1.55;;
27199;SDS011;14714;48.106;11.546;2023-05-10T11:26:49;5.10;;;1.30;;
27199;SDS011;14714;48.106;11.546;2023-05-10T11:29:17;4.10;;;1.40;;
27199;SDS011;14714;48.106;11.546;2023-05-10T11:31:44;4.38;;;1.30;;
27199;SDS011;14714;48.106;11.546;2023-05-10T11:34:25;3.65;;;1.30;;
27199;SDS011;14714;48.106;11.546;2023-05-10T11:36:57;2.58;;;1.27;;
27199;SDS011;14714;48.106;11.546;2023-05-10T11:39:28;4.15;;;1.58;;
27199;SDS011;14714;48.106;11.546;2023-05-10T11:41:56;3.70;;;1.50;;
27199;SDS011;14714;48.106;11.546;2023-05-10T11:44:25;8.93;;;2.42;;
27199;SDS011;14714;48.106;11.546;2023-05-10T11:46:58;3.72;;;1.67;;
27199;SDS011;14714;48.106;11.546;2023-05-10T11:49:26;4.90;;;1.40;;
27199;SDS011;14714;48.106;11.546;2023-05-10T11:51:53;5.45;;;1.90;;
27199;SDS011;14714;48.106;11.546;2023-05-10T11:54:29;3.63;;;1.60;;
27199;SDS011;14714;48.106;11.546;2023-05-10T11:56:57;8.23;;;1.60;;
27199;SDS011;14714;48.106;11.546;2023-05-10T11:59:23;2.53;;;1.30;;
27199;SDS011;14714;48.106;11.546;2023-05-10T12:01:51;8.35;;;1.40;;
27199;SDS011;14714;48.106;11.546;2023-05-10T12:04:18;9.32;;;1.58;;
27199;SDS011;14714;48.106;11.546;2023-05-10T12:06:46;7.50;;;1.50;;
27199;SDS011;14714;48.106;11.546;2023-05-10T12:09:13;2.90;;;1.15;;
27199;SDS011;14714;48.106;11.546;2023-05-10T12:11:40;4.03;;;1.25;;
27199;SDS011;14714;48.106;11.546;2023-05-10T12:14:10;2.72;;;1.20;;
27199;SDS011;14714;48.106;11.546;2023-05-10T12:16:37;3.17;;;1.30;;
27199;SDS011;14714;48.106;11.546;2023-05-10T12:19:04;2.60;;;1.30;;
27199;SDS011;14714;48.106;11.546;2023-05-10T12:21:32;4.30;;;1.73;;
27199;SDS011;14714;48.106;11.546;2023-05-10T12:24:00;3.08;;;1.60;;
27199;SDS011;14714;48.106;11.546;2023-05-10T12:26:29;1.90;;;1.50;;
27199;SDS011;14714;48.106;11.546;2023-05-10T12:29:11;4.30;;;1.55;;
27199;SDS011;14714;48.106;11.546;2023-05-10T12:31:48;3.70;;;1.75;;
27199;SDS011;14714;48.106;11.546;2023-05-10T12:34:23;5.70;;;1.85;;
27199;SDS011;14714;48.106;11.546;2023-05-10T12:36:52;4.40;;;1.85;;
27199;SDS011;14714;48.106;11.546;2023-05-10T12:39:19;5.43;;;1.60;;
27199;SDS011;14714;48.106;11.546;2023-05-10T12:41:46;1.77;;;1.33;;
27199;SDS011;14714;48.106;11.546;2023-05-10T12:44:13;3.95;;;1.67;;
27199;SDS011;14714;48.106;11.546;2023-05-10T12:46:39;2.47;;;1.55;;
27199;SDS011;14714;48.106;11.546;2023-05-10T12:49:06;1.70;;;1.20;;
27199;SDS011;14714;48.106;11.546;2023-05-10T12:51:35;2.92;;;1.30;;
27199;SDS011;14714;48.106;11.546;2023-05-10T12:54:02;5.07;;;1.40;;
27199;SDS011;14714;48.106;11.546;2023-05-10T12:56:29;4.85;;;2.30;;
27199;SDS011;14714;48.106;11.546;2023-05-10T12:58:56;5.10;;;1.85;;
27199;SDS011;14714;48.106;11.546;2023-05-10T13:01:23;5.10;;;1.30;;
27199;SDS011;14714;48.106;11.546;2023-05-10T13:03:49;3.78;;;1.63;;
27199;SDS011;14714;48.106;11.546;2023-05-10T13:06:16;4.95;;;1.70;;
27199;SDS011;14714;48.106;11.546;2023-05-10T13:08:43;2.75;;;1.65;;
27199;SDS011;14714;48.106;11.546;2023-05-10T13:11:10;3.50;;;1.83;;
27199;SDS011;14714;48.106;11.546;2023-05-10T13:13:36;6.32;;;2.22;;
27199;SDS011;14714;48.106;11.546;2023-05-10T13:16:03;4.25;;;1.60;;
27199;SDS011;14714;48.106;11.546;2023-05-10T13:18:30;3.30;;;1.80;;
27199;SDS011;14714;48.106;11.546;2023-05-10T13:20:57;4.05;;;1.75;;
27199;SDS011;14714;48.106;11.546;2023-05-10T13:23:24;6.55;;;1.70;;
27199;SDS011;14714;48.106;11.546;2023-05-10T13:25:51;5.03;;;1.55;;
27199;SDS011;14714;48.106;11.546;2023-05-10T13:28:18;3.10;;;1.25;;
27199;SDS011;14714;48.106;11.546;2023-05-10T13:30:44;2.60;;;1.60;;
27199;SDS011;14714;48.106;11.546;2023-05-10T13:33:11;2.65;;;1.65;;
27199;SDS011;14714;48.106;11.546;2023-05-10T13:35:38;5.68;;;1.98;;
27199;SDS011;14714;48.106;11.546;2023-05-10T13:38:05;3.88;;;1.70;;
27199;SDS011;14714;48.106;11.546;2023-05-10T13:40:34;5.30;;;1.50;;
27199;SDS011;14714;48.106;11.546;2023-05-10T13:43:02;3.63;;;1.88;;
27199;SDS011;14714;48.106;11.546;2023-05-10T13:45:28;3.63;;;1.67;;
27199;SDS011;14714;48.106;11.546;2023-05-10T13:47:55;2.33;;;1.23;;
27199;SDS011;14714;48.106;11.546;2023-05-10T13:50:22;3.10;;;1.50;;
27199;SDS011;14714;48.106;11.546;2023-05-10T13:52:49;5.43;;;1.50;;
27199;SDS011;14714;48.106;11.546;2023-05-10T13:55:16;6.47;;;1.70;;
27199;SDS011;14714;48.106;11.546;2023-05-10T13:57:43;5.25;;;1.65;;
27199;SDS011;14714;48.106;11.546;2023-05-10T14:00:10;3.05;;;1.40;;
27199;SDS011;14714;48.106;11.546;2023-05-10T14:02:37;1.70;;;1.25;;
27199;SDS011;14714;48.106;11.546;2023-05-10T14:05:04;3.20;;;1.73;;
27199;SDS011;14714;48.106;11.546;2023-05-10T14:07:31;2.75;;;1.65;;
27199;SDS011;14714;48.106;11.546;2023-05-10T14:09:58;3.50;;;1.70;;
27199;SDS011;14714;48.106;11.546;2023-05-10T14:12:25;3.75;;;1.50;;
27199;SDS011;14714;48.106;11.546;2023-05-10T14:14:51;1.67;;;1.30;;
27199;SDS011;14714;48.106;11.546;2023-05-10T14:17:18;2.70;;;1.38;;
27199;SDS011;14714;48.106;11.546;2023-05-10T14:19:45;4.07;;;2.03;;
27199;SDS011;14714;48.106;11.546;2023-05-10T14:22:12;2.13;;;1.30;;
27199;SDS011;14714;48.106;11.546;2023-05-10T14:24:38;2.38;;;1.17;;
27199;SDS011;14714;48.106;11.546;2023-05-10T14:27:05;4.03;;;1.40;;
27199;SDS011;14714;48.106;11.546;2023-05-10T14:29:32;5.80;;;1.50;;
27199;SDS011;14714;48.106;11.546;2023-05-10T14:31:59;3.90;;;1.70;;
27199;SDS011;14714;48.106;11.546;2023-05-10T14:34:25;4.43;;;1.48;;
27199;SDS011;14714;48.106;11.546;2023-05-10T14:36:52;3.63;;;1.50;;
27199;SDS011;14714;48.106;11.546;2023-05-10T14:39:19;2.83;;;1.20;;
27199;SDS011;14714;48.106;11.546;2023-05-10T14:41:46;2.95;;;1.70;;
27199;SDS011;14714;48.106;11.546;2023-05-10T14:44:13;3.95;;;1.30;;
27199;SDS011;14714;48.106;11.546;2023-05-10T14:46:41;3.70;;;1.20;;
27199;SDS011;14714;48.106;11.546;2023-05-10T14:49:08;4.97;;;1.42;;
27199;SDS011;14714;48.106;11.546;2023-05-10T14:51:34;3.70;;;1.08;;
27199;SDS011;14714;48.106;11.546;2023-05-10T14:54:02;2.30;;;0.90;;
27199;SDS011;14714;48.106;11.546;2023-05-10T14:56:29;1.83;;;1.10;;
27199;SDS011;14714;48.106;11.546;2023-05-10T14:58:56;2.53;;;1.20;;
27199;SDS011;14714;48.106;11.546;2023-05-10T15:01:23;1.95;;;1.13;;
27199;SDS011;14714;48.106;11.546;2023-05-10T15:03:51;2.08;;;1.10;;
27199;SDS011;14714;48.106;11.546;2023-05-10T15:06:22;3.53;;;0.90;;
27199;SDS011;14714;48.106;11.546;2023-05-10T15:08:50;1.48;;;1.00;;
27199;SDS011;14714;48.106;11.546;2023-05-10T15:11:18;4.10;;;1.30;;
27199;SDS011;14714;48.106;11.546;2023-05-10T15:13:44;3.35;;;1.30;;